Time;durP1;ratioP1;P1;durP2;ratioP2;P2;SDS_P1;SDS_P2;PMS_P1;PMS_P2;Temp;Humidity;BMP_temperature;BMP_pressure;BME280_temperature;BME280_humidity;BME280_pressure;Samples;Min_cycle;Max_cycle;Signal;HPM_P1;HPM_P2
2022/01/30 00:01:45;;;;;;;18.77;14.65;;;21.70;52.60;;;;;;5018073;28;20187;-66
2022/01/30 00:04:11;;;;;;;20.58;15.02;;;21.70;52.60;;;;;;5017903;28;20186;-67
2022/01/30 00:06:38;;;;;;;19.75;14.90;;;21.70;52.70;;;;;;5018115;28;20183;-67
2022/01/30 00:09:08;;;;;;;19.42;14.95;;;21.70;52.60;;;;;;5035892;28;20226;-67
2022/01/30 00:11:37;;;;;;;20.33;14.07;;;21.70;52.60;;;;;;5018269;28;20181;-67
2022/01/30 00:14:05;;;;;;;18.95;15.27;;;21.70;52.70;;;;;;5035414;28;20188;-67
2022/01/30 00:16:34;;;;;;;21.48;14.85;;;21.70;52.60;;;;;;5017657;28;20585;-67
2022/01/30 00:19:28;;;;;;;20.83;15.02;;;21.70;52.60;;;;;;5035387;28;20278;-66
2022/01/30 00:22:12;;;;;;;18.08;12.75;;;21.70;52.60;;;;;;5014398;28;20172;-67
2022/01/30 00:24:55;;;;;;;16.08;13.30;;;21.70;52.60;;;;;;5014569;28;20168;-66
2022/01/30 00:27:29;;;;;;;19.13;13.80;;;21.70;52.60;;;;;;5015612;28;20230;-67
2022/01/30 00:29:55;;;;;;;18.98;13.45;;;21.70;52.60;;;;;;5014397;28;20231;-67
2022/01/30 00:32:21;;;;;;;18.52;12.90;;;21.70;52.70;;;;;;5014676;28;20180;-67
2022/01/30 00:34:47;;;;;;;18.25;14.02;;;21.70;52.60;;;;;;5014210;28;20183;-67
2022/01/30 00:37:13;;;;;;;19.95;14.07;;;21.70;52.60;;;;;;4997770;28;20215;-67
2022/01/30 00:39:39;;;;;;;16.45;13.32;;;21.70;52.60;;;;;;4998066;28;20216;-67
2022/01/30 00:42:05;;;;;;;19.27;12.57;;;21.70;52.60;;;;;;5014742;28;20184;-67
2022/01/30 00:44:31;;;;;;;16.88;12.32;;;21.70;52.60;;;;;;5014056;28;20184;-67
2022/01/30 00:46:58;;;;;;;17.33;12.55;;;21.70;52.60;;;;;;5013969;28;20192;-67
2022/01/30 00:49:25;;;;;;;17.23;13.15;;;21.70;52.60;;;;;;4997707;28;20208;-67
2022/01/30 00:51:51;;;;;;;16.10;12.15;;;21.70;52.60;;;;;;4997546;28;20184;-67
2022/01/30 00:54:17;;;;;;;17.88;12.65;;;21.70;52.60;;;;;;5013780;28;20543;-67
2022/01/30 00:56:42;;;;;;;15.15;11.88;;;21.70;52.60;;;;;;4997269;28;20239;-67
2022/01/30 00:59:08;;;;;;;17.70;12.80;;;21.70;52.60;;;;;;4997790;28;20229;-67
2022/01/30 01:01:34;;;;;;;16.20;11.50;;;21.70;52.70;;;;;;5013195;28;20279;-66
2022/01/30 01:04:02;;;;;;;13.50;10.77;;;21.70;52.60;;;;;;4997393;28;20271;-67
2022/01/30 01:06:27;;;;;;;13.10;10.82;;;21.70;52.60;;;;;;4980876;28;20187;-67
2022/01/30 01:08:58;;;;;;;14.98;11.18;;;21.70;52.60;;;;;;5013808;28;20203;-67
2022/01/30 01:24:12;;;;;;;13.98;11.13;;;21.70;52.60;;;;;;5013510;28;20184;-67
2022/01/30 01:26:38;;;;;;;13.40;9.73;;;21.70;52.60;;;;;;4996733;28;20176;-67
2022/01/30 01:29:08;;;;;;;15.10;11.10;;;21.70;52.60;;;;;;5013076;28;20265;-67
2022/01/30 01:31:34;;;;;;;13.85;10.18;;;21.70;52.70;;;;;;5013474;28;20188;-66
2022/01/30 01:36:32;;;;;;;11.98;9.63;;;21.70;52.60;;;;;;5012767;28;20239;-67
2022/01/30 01:38:57;;;;;;;13.60;9.32;;;21.70;52.60;;;;;;5017759;28;20200;-67
2022/01/30 01:41:28;;;;;;;12.73;9.32;;;21.70;52.60;;;;;;5012824;28;20184;-67
2022/01/30 01:43:55;;;;;;;11.63;9.18;;;21.70;52.60;;;;;;5012835;28;20717;-66
2022/01/30 01:46:31;;;;;;;12.90;9.40;;;21.60;52.60;;;;;;4996406;28;20184;-67
2022/01/30 01:48:57;;;;;;;10.95;9.10;;;21.60;52.60;;;;;;4996400;28;20302;-67
2022/01/30 01:51:29;;;;;;;13.10;9.35;;;21.60;52.60;;;;;;5013074;28;20180;-67
2022/01/30 01:53:57;;;;;;;11.75;9.38;;;21.60;53.20;;;;;;4995573;28;20234;-67
2022/01/30 01:56:25;;;;;;;12.45;9.75;;;21.60;52.50;;;;;;5012571;28;20184;-67
2022/01/30 01:59:04;;;;;;;12.27;9.43;;;21.60;52.60;;;;;;4996375;28;20253;-67
2022/01/30 02:01:52;;;;;;;12.60;9.77;;;21.60;52.50;;;;;;5026969;28;20223;-67
2022/01/30 02:04:19;;;;;;;12.27;9.20;;;21.60;52.50;;;;;;5012394;28;20184;-67
2022/01/30 02:06:47;;;;;;;9.50;7.90;;;21.60;52.50;;;;;;5012606;28;20203;-67
2022/01/30 02:09:13;;;;;;;11.38;8.95;;;21.60;52.50;;;;;;4996095;28;20208;-67
2022/01/30 02:11:45;;;;;;;11.38;8.20;;;21.60;52.60;;;;;;4979876;28;20215;-67
2022/01/30 02:14:25;;;;;;;11.65;8.45;;;21.60;52.60;;;;;;5012507;28;20222;-68
2022/01/30 02:25:37;;;;;;;10.23;8.60;;;21.60;52.40;;;;;;5028412;28;20180;-67
2022/01/30 02:28:09;;;;;;;10.07;7.88;;;21.60;52.40;;;;;;5011859;28;20231;-67
2022/01/30 02:30:39;;;;;;;8.27;6.97;;;21.60;52.40;;;;;;4995354;28;20187;-67
2022/01/30 02:33:06;;;;;;;8.65;7.45;;;21.60;52.40;;;;;;5028525;28;20233;-67
2022/01/30 02:35:32;;;;;;;10.00;7.90;;;21.70;52.50;;;;;;5011694;28;20660;-67
2022/01/30 02:38:01;;;;;;;10.02;7.53;;;21.60;52.50;;;;;;5011931;28;20246;-67
2022/01/30 02:40:29;;;;;;;10.32;7.50;;;21.60;52.40;;;;;;5028466;28;20184;-67
2022/01/30 02:42:55;;;;;;;9.13;7.57;;;21.60;52.40;;;;;;5028591;28;20308;-67
2022/01/30 02:45:24;;;;;;;10.00;8.10;;;21.60;52.40;;;;;;5028024;28;20201;-67
2022/01/30 02:50:50;;;;;;;9.52;7.32;;;21.60;52.40;;;;;;5028551;28;20187;-67
2022/01/30 02:53:16;;;;;;;9.10;7.20;;;21.60;52.30;;;;;;5012016;28;20180;-67
2022/01/30 02:55:42;;;;;;;9.05;7.47;;;21.60;52.40;;;;;;5011373;28;20269;-67
2022/01/30 02:58:08;;;;;;;8.80;7.20;;;21.60;52.40;;;;;;4995446;28;20243;-67
2022/01/30 03:00:34;;;;;;;8.23;6.45;;;21.60;52.40;;;;;;5011558;28;20184;-67
2022/01/30 03:03:02;;;;;;;9.02;6.65;;;21.60;52.40;;;;;;5011427;28;20200;-67
2022/01/30 03:05:28;;;;;;;8.18;6.22;;;21.60;52.30;;;;;;5027782;28;20179;-67
2022/01/30 03:07:55;;;;;;;7.28;6.20;;;21.60;52.30;;;;;;5008019;28;20191;-67
2022/01/30 03:10:22;;;;;;;7.68;6.28;;;21.60;52.30;;;;;;4990802;28;20187;-67
2022/01/30 03:12:48;;;;;;;9.88;6.82;;;21.60;52.30;;;;;;4998789;28;20186;-67
2022/01/30 03:15:14;;;;;;;7.68;6.22;;;21.60;52.30;;;;;;5014526;28;20187;-67
2022/01/30 03:17:40;;;;;;;8.07;6.40;;;21.60;52.30;;;;;;5012769;28;20203;-66
2022/01/30 03:20:07;;;;;;;7.40;6.00;;;21.60;52.30;;;;;;5014746;28;20199;-67
2022/01/30 03:22:34;;;;;;;8.48;6.40;;;21.60;52.30;;;;;;4998435;28;20180;-66
2022/01/30 03:25:00;;;;;;;9.30;6.50;;;21.60;52.30;;;;;;5014761;28;20179;-67
2022/01/30 03:27:51;;;;;;;8.40;6.35;;;21.60;52.30;;;;;;5014680;28;20222;-67
2022/01/30 03:30:25;;;;;;;7.78;6.75;;;21.60;52.20;;;;;;4998411;28;20470;-67
2022/01/30 03:33:12;;;;;;;6.75;5.63;;;21.60;52.20;;;;;;5001094;28;20178;-67
2022/01/30 03:35:38;;;;;;;7.07;5.93;;;21.60;52.30;;;;;;4998415;28;20246;-67
2022/01/30 03:38:06;;;;;;;6.78;5.97;;;21.60;52.30;;;;;;5014627;28;20243;-66
2022/01/30 03:40:33;;;;;;;8.43;6.20;;;21.60;52.20;;;;;;5014523;28;20179;-67
2022/01/30 03:43:01;;;;;;;7.82;5.70;;;21.60;52.20;;;;;;5015091;28;20176;-67
2022/01/30 03:45:27;;;;;;;7.10;5.88;;;21.60;52.30;;;;;;5014297;28;20221;-67
2022/01/30 03:47:56;;;;;;;6.32;5.40;;;21.60;52.20;;;;;;5014155;28;20270;-67
2022/01/30 03:50:28;;;;;;;5.43;4.90;;;21.60;52.20;;;;;;5014640;28;20183;-67
2022/01/30 03:52:54;;;;;;;5.95;5.32;;;21.60;52.20;;;;;;4998349;28;20184;-67
2022/01/30 03:55:22;;;;;;;7.15;5.82;;;21.60;52.20;;;;;;5014358;28;20176;-67
2022/01/30 03:57:49;;;;;;;7.80;6.13;;;21.60;52.20;;;;;;5014521;28;20203;-67
2022/01/30 04:00:15;;;;;;;5.85;5.25;;;21.60;52.20;;;;;;5014601;28;20218;-67
2022/01/30 04:02:47;;;;;;;6.75;5.55;;;21.60;52.20;;;;;;5031163;28;20178;-67
2022/01/30 04:05:14;;;;;;;7.75;5.97;;;21.60;52.20;;;;;;4997847;28;20186;-67
2022/01/30 04:07:44;;;;;;;6.10;5.22;;;21.60;52.20;;;;;;5030611;28;20241;-67
2022/01/30 04:10:24;;;;;;;7.03;5.43;;;21.60;52.20;;;;;;4999932;28;20778;-67
2022/01/30 04:13:02;;;;;;;5.95;5.22;;;21.60;52.20;;;;;;4999850;28;20709;-67
2022/01/30 04:15:49;;;;;;;7.47;5.25;;;21.60;52.20;;;;;;5014744;28;20180;-67
2022/01/30 04:18:34;;;;;;;7.40;5.68;;;21.60;52.20;;;;;;5020497;28;20712;-66
2022/01/30 04:21:14;;;;;;;6.57;5.32;;;21.60;52.20;;;;;;5017857;28;20198;-67
2022/01/30 04:24:18;;;;;;;6.63;4.90;;;21.60;52.10;;;;;;4954896;29;20300;-66
2022/01/30 04:27:13;;;;;;;6.10;4.85;;;21.60;52.20;;;;;;4923538;29;20230;-66
2022/01/30 04:29:53;;;;;;;5.45;4.53;;;21.60;52.20;;;;;;4985754;28;20262;-67
2022/01/30 04:32:42;;;;;;;7.30;4.82;;;21.60;52.20;;;;;;5015675;28;20207;-67
2022/01/30 04:35:30;;;;;;;6.47;5.28;;;21.60;52.20;;;;;;4993733;28;20204;-67
2022/01/30 04:41:23;;;;;;;5.35;4.20;;;21.60;52.20;;;;;;4967779;28;20312;-67
2022/01/30 05:02:06;;;;;;;5.32;4.10;;;21.60;52.10;;;;;;4997644;28;20188;-67
2022/01/30 05:07:38;;;;;;;4.32;3.92;;;21.60;52.10;;;;;;5007561;28;20192;-67
2022/01/30 05:10:36;;;;;;;5.95;4.30;;;21.60;52.10;;;;;;4969715;28;20199;-67
2022/01/30 05:13:21;;;;;;;7.07;4.35;;;21.60;52.10;;;;;;5015060;28;20183;-67
2022/01/30 05:16:06;;;;;;;3.92;3.50;;;21.50;52.00;;;;;;5013490;28;20176;-67
2022/01/30 05:18:41;;;;;;;4.95;4.00;;;21.60;52.10;;;;;;4997422;28;20211;-67
2022/01/30 05:21:21;;;;;;;4.18;3.40;;;21.50;52.00;;;;;;5013650;28;20191;-67
2022/01/30 05:23:56;;;;;;;5.00;3.90;;;21.60;52.10;;;;;;4997413;28;20198;-67
2022/01/30 05:26:44;;;;;;;6.57;4.28;;;21.60;52.00;;;;;;4999429;28;20196;-67
2022/01/30 05:29:48;;;;;;;6.22;3.95;;;21.60;52.10;;;;;;4934544;29;20740;-67
2022/01/30 05:32:19;;;;;;;4.93;3.80;;;21.60;52.10;;;;;;4918858;29;20191;-67
2022/01/30 05:34:46;;;;;;;6.43;3.70;;;21.60;52.10;;;;;;4957751;28;20195;-66
2022/01/30 05:37:20;;;;;;;4.93;3.65;;;21.60;52.10;;;;;;4996675;28;20204;-67
2022/01/30 05:40:06;;;;;;;4.78;3.60;;;21.50;52.00;;;;;;4999380;28;20222;-67
2022/01/30 05:42:52;;;;;;;4.40;3.80;;;21.60;52.10;;;;;;5006721;28;20589;-67
2022/01/30 05:45:42;;;;;;;6.05;3.67;;;21.50;51.90;;;;;;4996735;28;20180;-67
2022/01/30 05:48:17;;;;;;;4.63;3.58;;;21.60;52.00;;;;;;5042315;22;20220;-69
2022/01/30 05:51:02;;;;;;;5.07;3.40;;;21.60;52.10;;;;;;5072756;28;20303;-67
2022/01/30 05:53:50;;;;;;;4.07;3.55;;;21.60;52.10;;;;;;5055700;28;20611;-67
2022/01/30 05:56:26;;;;;;;4.68;3.20;;;21.60;52.00;;;;;;5070842;28;20174;-67
2022/01/30 05:58:58;;;;;;;4.47;3.58;;;21.60;52.10;;;;;;5048399;28;20203;-67
2022/01/30 06:01:26;;;;;;;3.63;3.15;;;21.60;52.10;;;;;;5036531;28;20198;-67
2022/01/30 06:03:56;;;;;;;4.03;3.05;;;21.60;52.10;;;;;;5052409;28;20174;-67
2022/01/30 06:06:21;;;;;;;4.13;3.28;;;21.50;51.90;;;;;;5035439;28;20201;-68
2022/01/30 06:09:01;;;;;;;4.05;3.25;;;21.60;52.00;;;;;;5052245;28;20209;-67
2022/01/30 06:11:27;;;;;;;3.90;2.90;;;21.50;51.90;;;;;;5019471;28;20178;-67
2022/01/30 06:13:53;;;;;;;3.40;2.97;;;21.50;51.90;;;;;;5052033;28;20274;-67
2022/01/30 06:16:19;;;;;;;3.95;3.00;;;21.60;52.10;;;;;;5051947;28;20274;-68
2022/01/30 06:18:46;;;;;;;5.53;3.10;;;21.60;52.00;;;;;;5035706;28;20308;-67
2022/01/30 06:21:30;;;;;;;3.83;3.00;;;21.60;52.10;;;;;;5037500;28;20201;-67
2022/01/30 06:24:15;;;;;;;4.32;3.10;;;21.50;52.00;;;;;;5038256;28;20204;-67
2022/01/30 06:27:09;;;;;;;3.78;3.22;;;21.50;51.90;;;;;;5039664;28;20221;-68
2022/01/30 06:29:53;;;;;;;3.72;2.58;;;21.50;51.90;;;;;;5053075;28;20225;-68
2022/01/30 06:32:19;;;;;;;3.22;2.88;;;21.60;52.00;;;;;;5035661;28;20182;-67
2022/01/30 06:34:48;;;;;;;4.10;3.20;;;21.50;51.90;;;;;;5035701;28;20194;-67
2022/01/30 06:37:33;;;;;;;4.43;3.38;;;21.60;51.90;;;;;;5052839;28;20296;-67
2022/01/30 06:40:18;;;;;;;4.57;3.10;;;21.60;52.00;;;;;;5037403;28;20732;-67
2022/01/30 06:42:59;;;;;;;3.92;2.97;;;21.50;51.90;;;;;;5037554;28;20178;-68
2022/01/30 06:45:51;;;;;;;3.78;2.60;;;21.60;52.00;;;;;;5008292;28;20194;-68
2022/01/30 06:48:35;;;;;;;3.45;2.72;;;21.50;51.90;;;;;;5052658;28;20240;-67
2022/01/30 06:51:19;;;;;;;3.78;2.92;;;21.50;51.80;;;;;;5037713;28;20193;-68
2022/01/30 06:54:04;;;;;;;2.88;2.40;;;21.60;51.90;;;;;;5052626;28;20323;-68
2022/01/30 06:56:50;;;;;;;3.15;2.67;;;21.60;51.90;;;;;;5041110;28;20218;-67
2022/01/30 06:59:35;;;;;;;3.20;2.75;;;21.60;51.90;;;;;;5037476;28;20217;-68
2022/01/30 07:02:19;;;;;;;3.45;3.03;;;21.50;51.80;;;;;;5037479;28;20200;-68
2022/01/30 07:05:14;;;;;;;3.85;2.88;;;21.60;51.90;;;;;;5021945;28;20178;-68
2022/01/30 07:08:07;;;;;;;3.75;2.50;;;21.50;51.80;;;;;;5034525;28;20175;-67
2022/01/30 07:10:33;;;;;;;3.95;2.88;;;21.50;51.80;;;;;;5034985;28;20265;-68
2022/01/30 07:12:59;;;;;;;3.08;2.55;;;21.50;51.80;;;;;;5034602;28;20197;-68
2022/01/30 07:15:25;;;;;;;3.35;3.03;;;21.50;51.70;;;;;;5018137;28;20236;-68
2022/01/30 07:17:51;;;;;;;3.83;2.42;;;21.50;51.60;;;;;;5018194;28;20206;-68
2022/01/30 07:20:17;;;;;;;4.53;2.33;;;21.50;51.60;;;;;;5034712;28;20236;-67
2022/01/30 07:22:42;;;;;;;2.92;2.58;;;21.50;51.60;;;;;;5034717;28;20182;-68
2022/01/30 07:25:09;;;;;;;3.05;2.13;;;21.50;51.60;;;;;;5017599;28;20186;-67
2022/01/30 07:27:38;;;;;;;3.58;2.72;;;21.50;51.60;;;;;;5034771;28;20281;-67
2022/01/30 07:30:06;;;;;;;3.65;2.67;;;21.50;51.60;;;;;;5017792;28;20210;-67
2022/01/30 07:32:32;;;;;;;3.78;2.40;;;21.50;51.60;;;;;;5017788;28;20218;-67
2022/01/30 07:34:57;;;;;;;3.50;2.70;;;21.50;51.60;;;;;;5018041;28;20222;-67
2022/01/30 07:37:24;;;;;;;3.97;2.67;;;21.50;51.60;;;;;;5034212;28;20591;-67
2022/01/30 07:39:50;;;;;;;3.63;2.30;;;21.50;51.60;;;;;;5034286;28;20198;-67
2022/01/30 07:42:17;;;;;;;4.22;2.40;;;21.50;51.60;;;;;;5018005;28;20186;-67
2022/01/30 07:44:43;;;;;;;3.28;2.35;;;21.50;51.60;;;;;;5017945;28;20190;-67
2022/01/30 07:47:08;;;;;;;2.78;2.20;;;21.50;51.50;;;;;;5018049;28;20187;-67
2022/01/30 07:49:34;;;;;;;3.97;2.60;;;21.50;51.50;;;;;;5034009;28;20259;-68
2022/01/30 07:52:00;;;;;;;4.43;2.38;;;21.50;51.50;;;;;;5053628;28;20182;-68
2022/01/30 07:54:26;;;;;;;2.53;2.30;;;21.50;51.60;;;;;;5054586;28;20190;-67
2022/01/30 07:56:51;;;;;;;2.55;2.17;;;21.50;51.60;;;;;;5038004;28;20222;-67
2022/01/30 07:59:17;;;;;;;3.13;2.28;;;21.50;51.70;;;;;;5054865;28;20199;-67
2022/01/30 08:01:43;;;;;;;2.65;2.45;;;21.50;51.70;;;;;;5021801;28;20239;-68
2022/01/30 08:04:08;;;;;;;11.15;2.53;;;21.60;51.70;;;;;;5021768;28;20174;-67
2022/01/30 08:06:35;;;;;;;3.10;2.30;;;21.50;51.60;;;;;;5021487;28;20212;-68
2022/01/30 08:09:02;;;;;;;6.05;2.40;;;21.50;51.60;;;;;;5037971;28;20202;-68
2022/01/30 08:11:27;;;;;;;4.05;2.22;;;21.60;51.80;;;;;;5038084;28;20193;-68
2022/01/30 08:13:53;;;;;;;2.72;2.22;;;21.50;51.60;;;;;;5054634;28;20187;-68
2022/01/30 08:16:20;;;;;;;3.72;2.13;;;21.50;51.60;;;;;;5037505;28;20182;-68
2022/01/30 08:18:46;;;;;;;3.50;2.30;;;21.50;51.60;;;;;;5055358;28;20206;-68
2022/01/30 08:21:12;;;;;;;2.70;2.10;;;21.50;51.60;;;;;;5037585;28;20664;-68
2022/01/30 08:23:37;;;;;;;4.82;2.00;;;21.50;51.60;;;;;;5021392;28;20186;-68
2022/01/30 08:26:03;;;;;;;3.50;2.55;;;21.50;51.60;;;;;;5037240;28;20186;-68
2022/01/30 08:28:30;;;;;;;2.83;2.05;;;21.50;51.60;;;;;;5020959;28;20220;-68
2022/01/30 08:30:56;;;;;;;3.33;2.25;;;21.50;51.60;;;;;;5037785;28;20285;-68
2022/01/30 08:33:22;;;;;;;2.75;2.08;;;21.50;51.60;;;;;;5037605;28;20186;-68
2022/01/30 08:35:49;;;;;;;2.83;1.90;;;21.50;51.60;;;;;;5020520;28;20243;-67
2022/01/30 08:38:17;;;;;;;2.85;2.15;;;21.50;51.50;;;;;;5020971;28;20302;-67
2022/01/30 08:40:48;;;;;;;3.47;2.20;;;21.50;51.50;;;;;;5020928;28;20189;-67
2022/01/30 08:43:15;;;;;;;4.45;2.38;;;21.50;51.60;;;;;;5053987;28;20204;-68
2022/01/30 08:45:42;;;;;;;2.85;1.92;;;21.50;51.60;;;;;;5020123;28;20198;-68
2022/01/30 08:48:08;;;;;;;6.15;2.30;;;21.50;51.70;;;;;;5028785;28;20187;-67
2022/01/30 08:50:34;;;;;;;2.70;1.77;;;21.60;51.70;;;;;;5037512;28;20190;-67
2022/01/30 08:53:00;;;;;;;2.95;1.95;;;21.50;52.20;;;;;;5054023;28;20278;-67
2022/01/30 08:55:29;;;;;;;3.45;1.88;;;21.50;51.60;;;;;;5053925;28;20653;-67
2022/01/30 08:57:57;;;;;;;3.92;2.17;;;21.50;51.50;;;;;;5053596;28;20213;-67
2022/01/30 09:00:23;;;;;;;2.35;1.92;;;21.50;51.60;;;;;;5036923;28;20712;-67
2022/01/30 09:02:50;;;;;;;3.85;2.33;;;21.60;51.70;;;;;;5053074;28;20182;-67
2022/01/30 09:05:16;;;;;;;3.15;2.40;;;21.60;51.70;;;;;;5054475;28;20228;-68
2022/01/30 09:07:42;;;;;;;5.22;1.88;;;21.60;51.70;;;;;;5017182;28;20183;-68
2022/01/30 09:10:11;;;;;;;6.25;2.00;;;21.60;51.60;;;;;;5016943;28;20256;-68
2022/01/30 09:12:39;;;;;;;4.28;2.22;;;21.60;51.70;;;;;;5016921;28;20562;-68
2022/01/30 09:15:08;;;;;;;4.65;1.90;;;21.60;51.70;;;;;;5017804;28;20270;-67
2022/01/30 09:17:35;;;;;;;4.55;1.98;;;21.60;51.60;;;;;;5044830;28;20210;-67
2022/01/30 09:20:04;;;;;;;3.95;2.00;;;21.60;51.70;;;;;;5067032;28;20199;-68
2022/01/30 09:22:30;;;;;;;4.55;2.10;;;21.50;51.60;;;;;;5036416;28;20280;-68
2022/01/30 09:24:56;;;;;;;2.95;2.10;;;21.60;51.70;;;;;;5036401;28;20190;-67
2022/01/30 09:27:22;;;;;;;7.00;1.80;;;21.60;51.70;;;;;;5036646;28;20646;-66
2022/01/30 09:29:48;;;;;;;3.60;2.15;;;21.60;51.70;;;;;;5036117;28;20213;-67
2022/01/30 09:32:14;;;;;;;2.80;1.90;;;21.60;51.90;;;;;;5052825;28;20190;-68
2022/01/30 09:34:40;;;;;;;3.72;1.90;;;21.60;51.80;;;;;;5052643;28;20190;-68
2022/01/30 09:37:07;;;;;;;4.75;1.95;;;21.60;51.90;;;;;;5019632;28;20214;-68
2022/01/30 09:39:33;;;;;;;2.38;1.92;;;21.60;52.00;;;;;;5053986;28;20248;-68
2022/01/30 09:42:00;;;;;;;2.97;1.88;;;21.60;52.00;;;;;;5019380;28;20240;-68
2022/01/30 09:44:26;;;;;;;4.80;2.08;;;21.60;52.10;;;;;;5036027;28;20253;-67
2022/01/30 09:46:52;;;;;;;5.32;2.08;;;21.60;52.10;;;;;;5019832;28;20197;-68
2022/01/30 09:49:26;;;;;;;3.10;1.85;;;21.70;52.20;;;;;;5018691;28;20317;-67
2022/01/30 09:51:53;;;;;;;4.90;2.22;;;21.60;51.40;;;;;;5036061;28;20232;-67
2022/01/30 09:54:19;;;;;;;6.55;2.22;;;21.60;52.20;;;;;;5035878;28;20187;-66
2022/01/30 09:56:45;;;;;;;4.53;1.85;;;21.60;52.10;;;;;;5035844;28;20197;-67
2022/01/30 09:59:11;;;;;;;5.22;2.17;;;21.60;52.00;;;;;;5035770;28;20195;-67
2022/01/30 10:01:38;;;;;;;6.05;2.00;;;21.60;52.00;;;;;;5035438;28;20629;-67
2022/01/30 10:04:05;;;;;;;4.85;2.15;;;21.50;51.60;;;;;;5036082;28;20277;-67
2022/01/30 10:06:50;;;;;;;4.80;2.13;;;21.60;52.00;;;;;;5036137;28;20189;-68
2022/01/30 10:09:28;;;;;;;4.53;1.80;;;21.60;51.60;;;;;;5019614;28;20244;-67
2022/01/30 10:12:12;;;;;;;6.07;2.00;;;21.50;51.50;;;;;;5035136;28;20186;-67
2022/01/30 10:14:49;;;;;;;4.03;1.75;;;21.60;51.50;;;;;;5017961;28;20182;-67
2022/01/30 10:17:33;;;;;;;3.85;1.83;;;21.60;51.70;;;;;;5019289;28;20209;-67
2022/01/30 10:20:12;;;;;;;5.88;2.17;;;21.60;51.70;;;;;;5018871;28;20222;-68
2022/01/30 10:22:50;;;;;;;3.60;1.92;;;21.60;51.80;;;;;;5035752;28;20201;-70
2022/01/30 10:25:26;;;;;;;5.30;2.10;;;21.50;51.60;;;;;;5053041;28;20158;-67
2022/01/30 10:28:26;;;;;;;3.38;1.77;;;21.60;51.70;;;;;;5035357;28;20181;-67
2022/01/30 10:31:00;;;;;;;4.88;1.77;;;21.60;51.80;;;;;;5034003;28;20179;-67
2022/01/30 10:33:49;;;;;;;3.35;1.95;;;21.60;51.70;;;;;;5017882;28;20177;-66
2022/01/30 10:36:29;;;;;;;7.10;1.60;;;21.50;51.60;;;;;;5034345;28;20186;-67
2022/01/30 10:39:17;;;;;;;4.00;2.00;;;21.60;51.70;;;;;;5034509;28;20214;-67
2022/01/30 10:41:53;;;;;;;3.40;1.92;;;21.60;51.70;;;;;;5034136;28;20174;-67
2022/01/30 10:44:19;;;;;;;6.22;2.10;;;21.60;51.70;;;;;;5034187;28;20537;-66
2022/01/30 10:46:51;;;;;;;6.78;2.28;;;21.60;51.70;;;;;;5017648;28;20705;-67
2022/01/30 10:49:24;;;;;;;4.78;1.80;;;21.60;51.70;;;;;;5050782;28;20206;-67
2022/01/30 10:51:55;;;;;;;8.75;2.58;;;21.60;51.70;;;;;;5017784;28;20622;-67
2022/01/30 10:54:25;;;;;;;7.03;2.28;;;21.50;51.60;;;;;;5050527;28;20247;-67
2022/01/30 10:57:03;;;;;;;6.93;1.95;;;21.60;51.70;;;;;;5017777;28;20213;-67
2022/01/30 10:59:29;;;;;;;4.63;1.98;;;21.60;51.70;;;;;;5033839;28;20210;-67
2022/01/30 11:01:59;;;;;;;5.57;1.85;;;21.60;51.80;;;;;;5050405;28;20674;-64
2022/01/30 11:04:31;;;;;;;4.50;1.90;;;21.60;51.70;;;;;;5017204;28;20559;-68
2022/01/30 11:07:01;;;;;;;3.55;1.55;;;21.60;51.80;;;;;;5016843;28;20624;-66
2022/01/30 11:09:34;;;;;;;5.22;2.00;;;21.60;51.70;;;;;;5033805;28;20249;-67
2022/01/30 11:14:52;;;;;;;4.35;1.92;;;21.60;51.80;;;;;;5052400;28;20185;-67
2022/01/30 11:17:21;;;;;;;5.18;1.95;;;21.60;52.00;;;;;;5017977;28;20210;-67
2022/01/30 11:19:53;;;;;;;3.55;2.20;;;21.60;51.90;;;;;;5018196;28;20205;-67
2022/01/30 11:22:23;;;;;;;6.55;2.40;;;21.60;52.00;;;;;;5017933;28;20383;-68
2022/01/30 11:25:00;;;;;;;5.70;2.13;;;21.60;52.10;;;;;;5017800;28;20267;-68
2022/01/30 11:27:26;;;;;;;7.97;2.60;;;21.60;52.00;;;;;;5034352;28;20180;-67
2022/01/30 11:29:53;;;;;;;9.40;2.30;;;21.60;52.10;;;;;;5017950;28;20271;-68
2022/01/30 11:32:22;;;;;;;5.00;2.03;;;21.60;52.30;;;;;;5028412;28;20187;-67
2022/01/30 11:34:48;;;;;;;6.68;2.00;;;21.60;52.20;;;;;;5014776;28;20190;-67
2022/01/30 11:37:17;;;;;;;4.80;1.73;;;21.60;52.30;;;;;;4998273;28;20207;-67
2022/01/30 11:39:46;;;;;;;6.30;2.25;;;21.60;52.40;;;;;;5014852;28;20214;-67
2022/01/30 11:42:21;;;;;;;2.97;1.83;;;21.60;52.40;;;;;;4998261;28;20604;-68
2022/01/30 11:44:59;;;;;;;6.75;2.30;;;21.60;52.40;;;;;;5017930;28;20268;-67
2022/01/30 11:47:25;;;;;;;3.85;1.70;;;21.60;52.30;;;;;;5054156;28;20177;-67
2022/01/30 11:50:04;;;;;;;3.92;2.10;;;21.60;52.30;;;;;;5053822;22;20230;-67
2022/01/30 11:53:06;;;;;;;5.43;1.65;;;21.60;52.30;;;;;;5052011;28;20166;-67
2022/01/30 11:56:00;;;;;;;6.82;2.40;;;21.60;52.50;;;;;;5017765;28;20181;-67
2022/01/30 11:58:54;;;;;;;5.53;2.15;;;21.60;52.50;;;;;;5044410;28;20298;-67
2022/01/30 12:01:26;;;;;;;4.50;1.90;;;21.60;52.60;;;;;;5008101;28;20184;-67
2022/01/30 12:04:00;;;;;;;6.35;2.17;;;21.60;52.50;;;;;;4991539;28;20185;-67
2022/01/30 12:06:27;;;;;;;9.43;2.20;;;21.60;52.50;;;;;;5007640;28;20176;-67
2022/01/30 12:09:25;;;;;;;3.63;1.83;;;21.60;52.50;;;;;;5017579;28;20188;-67
2022/01/30 12:12:03;;;;;;;5.15;2.33;;;21.60;52.30;;;;;;5032333;28;20179;-67
2022/01/30 12:14:43;;;;;;;5.95;2.17;;;21.60;52.50;;;;;;5024718;28;20179;-66
2022/01/30 12:17:09;;;;;;;4.45;2.13;;;21.60;52.50;;;;;;5031791;28;20213;-67
2022/01/30 12:19:39;;;;;;;5.80;2.25;;;21.60;52.40;;;;;;5014549;28;20282;-67
2022/01/30 12:22:17;;;;;;;4.53;2.40;;;21.60;52.50;;;;;;5014204;28;20202;-67
2022/01/30 12:24:45;;;;;;;5.72;2.45;;;21.60;52.50;;;;;;5013892;28;20531;-66
2022/01/30 12:27:11;;;;;;;5.40;2.42;;;21.60;52.50;;;;;;5014440;28;20175;-67
2022/01/30 12:29:51;;;;;;;5.00;2.22;;;21.60;52.50;;;;;;4997739;28;20207;-67
2022/01/30 12:32:20;;;;;;;5.13;2.10;;;21.60;52.30;;;;;;5031828;28;20258;-67
2022/01/30 12:34:55;;;;;;;4.90;1.83;;;21.60;52.30;;;;;;5014267;28;20324;-67
2022/01/30 12:37:32;;;;;;;5.50;2.40;;;21.60;52.10;;;;;;5015580;28;20206;-68
2022/01/30 12:40:17;;;;;;;5.90;2.38;;;21.60;52.20;;;;;;5035259;28;20221;-68
2022/01/30 12:42:44;;;;;;;5.65;1.95;;;21.60;52.20;;;;;;5017614;28;20326;-67
2022/01/30 12:45:12;;;;;;;5.30;2.15;;;21.60;52.20;;;;;;5017610;28;20179;-67
2022/01/30 12:48:08;;;;;;;4.88;2.20;;;21.60;52.30;;;;;;5017659;28;20252;-67
2022/01/30 12:50:36;;;;;;;6.72;2.20;;;21.60;52.20;;;;;;5032839;28;20223;-67
2022/01/30 12:53:02;;;;;;;5.80;2.30;;;21.60;52.10;;;;;;5017460;28;20195;-67
2022/01/30 12:55:29;;;;;;;6.63;2.22;;;21.60;52.10;;;;;;5000866;28;20191;-67
2022/01/30 12:57:58;;;;;;;4.90;2.03;;;21.60;52.10;;;;;;5017442;28;20226;-67
2022/01/30 13:00:24;;;;;;;5.38;1.92;;;21.60;52.00;;;;;;5017298;28;20203;-67
2022/01/30 13:03:01;;;;;;;5.43;2.20;;;21.60;52.10;;;;;;5017113;28;20193;-67
2022/01/30 13:05:31;;;;;;;3.67;1.88;;;21.60;52.10;;;;;;5007911;28;20188;-67
2022/01/30 13:07:59;;;;;;;6.10;2.13;;;21.60;52.10;;;;;;4997575;28;20180;-67
2022/01/30 13:10:27;;;;;;;4.78;1.95;;;21.60;52.10;;;;;;4997556;28;20204;-67
2022/01/30 13:12:57;;;;;;;6.63;2.15;;;21.60;52.10;;;;;;4981092;28;20323;-67
2022/01/30 13:15:23;;;;;;;5.13;2.20;;;21.50;52.00;;;;;;4997094;28;20222;-67
2022/01/30 13:17:51;;;;;;;5.38;2.13;;;21.60;52.10;;;;;;4997576;28;20227;-67
2022/01/30 13:20:23;;;;;;;5.68;2.25;;;21.60;52.20;;;;;;4997287;28;20207;-67
2022/01/30 13:22:51;;;;;;;4.00;1.67;;;21.60;52.20;;;;;;4997331;28;20223;-67
2022/01/30 13:25:19;;;;;;;5.15;2.38;;;21.60;52.30;;;;;;4981008;28;20195;-67
2022/01/30 13:27:49;;;;;;;5.22;2.03;;;21.60;52.20;;;;;;4981196;28;20279;-67
2022/01/30 13:30:30;;;;;;;3.53;1.88;;;21.60;52.10;;;;;;4980723;28;20207;-67
2022/01/30 13:32:55;;;;;;;4.45;1.80;;;21.70;52.20;;;;;;4997408;28;20176;-68
2022/01/30 13:35:30;;;;;;;5.72;2.00;;;21.70;52.20;;;;;;4996724;28;20195;-67
2022/01/30 13:38:01;;;;;;;3.50;1.90;;;21.70;52.20;;;;;;4980719;28;20207;-67
2022/01/30 13:40:41;;;;;;;4.10;1.90;;;21.70;52.20;;;;;;4980895;28;20216;-67
2022/01/30 13:43:16;;;;;;;3.45;1.75;;;21.70;52.30;;;;;;4980685;28;20176;-67
2022/01/30 13:48:20;;;;;;;6.95;2.33;;;21.70;52.40;;;;;;4996660;28;20190;-67
2022/01/30 13:51:03;;;;;;;4.18;1.80;;;21.70;52.40;;;;;;5014052;28;20218;-67
2022/01/30 13:53:31;;;;;;;6.07;2.15;;;21.70;52.50;;;;;;4980694;28;20219;-67
2022/01/30 13:56:12;;;;;;;4.07;2.15;;;21.70;52.40;;;;;;4980075;28;20223;-68
2022/01/30 13:58:37;;;;;;;3.03;1.70;;;21.70;52.40;;;;;;4996452;28;20192;-68
2022/01/30 14:01:08;;;;;;;5.07;1.92;;;21.70;52.40;;;;;;4980204;28;20199;-68
2022/01/30 14:03:35;;;;;;;1.85;1.40;;;21.70;52.40;;;;;;4980172;28;20194;-68
2022/01/30 14:06:02;;;;;;;3.95;1.92;;;21.70;52.50;;;;;;4980209;28;20172;-67